Elk, Pennsylvania
Current Conditions -  °F | °C
As of 9:35 PM on Wednesday 22 Oct 2014 (Local Time) from KN38 Reporting Station
Overcast Overcast  
Wind Chill: 34°   Ceiling: 600
Heat Index: 43°   Visibility: 10mi
Dew Point: 41°   Wind: 21mph
Humidity: 93%   Direction: 360°N
Pressure: 30.08"   Gusts: 29mph
Location:  41.6649°N, 77.5403°W
Report Text: KN38 230135Z AUTO 36018G25KT 10SM OVC006 06/05 A3008 RMK AO2 LTG DSNT E
Loading
Personal Weather Stations






























Interactive Weather Map
Tropical Storm Tracking
New forecast layout! Learn more

10-Day Weather Forecast

Advertisements
Track Severe Weather on mobile